FDX9008 OMDW-FAOR
Flight info
| Callsign | FDX9008 |
|---|---|
| Flight time | N/A |
| Altitude | 30000 |
| Route | ANVIX R401 GIDIS G783 UKRAG L710 KUKDI B400 VEDET UL437 DV UM310 VBR UM307 EPSEK UZ33 NESAG UZ7 OKPIT OKPIT1D |
| Aircraft | B77L/H-SDE1E2E3FGHIJ2J3J4J5M1RWXY/LB1D1 |
Departure
| Time | N/A |
|---|---|
| Airport | Al Maktoum International Airport (OMDW) |
Arrival
| Time | 2026-05-06 23:19 |
|---|---|
| Airport | O.R. Tambo International Airport (FAOR) |
| Time | Latitude | Longitude | Altitude | Speed | Heading |
|---|---|---|---|---|---|
| 2026-05-06 20:48 | -13.13089 | 37.14949 | 33998 ft | 495 kts | 200° |
| 2026-05-06 20:49 | -13.19640 | 37.12769 | 34009 ft | 495 kts | 200° |
| 2026-05-06 20:49 | -13.26199 | 37.10586 | 34006 ft | 496 kts | 200° |
| 2026-05-06 20:50 | -13.32764 | 37.08400 | 34015 ft | 496 kts | 200° |
| 2026-05-06 20:50 | -13.39327 | 37.06214 | 34011 ft | 496 kts | 200° |
| 2026-05-06 20:51 | -13.45891 | 37.04026 | 34022 ft | 496 kts | 200° |
| 2026-05-06 20:51 | -13.52465 | 37.01833 | 34019 ft | 496 kts | 200° |
| 2026-05-06 20:52 | -13.59026 | 36.99643 | 34022 ft | 496 kts | 200° |
| 2026-05-06 20:52 | -13.65600 | 36.97448 | 34018 ft | 497 kts | 200° |
| 2026-05-06 20:53 | -13.72171 | 36.95252 | 34017 ft | 497 kts | 200° |
| 2026-05-06 20:53 | -13.78751 | 36.93053 | 34021 ft | 497 kts | 200° |
| 2026-05-06 20:54 | -13.85324 | 36.90854 | 34016 ft | 497 kts | 200° |
| 2026-05-06 20:54 | -13.91903 | 36.88651 | 34016 ft | 497 kts | 200° |
| 2026-05-06 20:55 | -13.98489 | 36.86445 | 34013 ft | 498 kts | 200° |
| 2026-05-06 20:55 | -14.05080 | 36.84243 | 34005 ft | 498 kts | 200° |
| 2026-05-06 20:56 | -14.11679 | 36.82072 | 34014 ft | 498 kts | 200° |
| 2026-05-06 20:56 | -14.18295 | 36.79901 | 34006 ft | 498 kts | 200° |
| 2026-05-06 20:57 | -14.24897 | 36.77729 | 34005 ft | 498 kts | 200° |
| 2026-05-06 20:57 | -14.31500 | 36.75552 | 34001 ft | 498 kts | 200° |
| 2026-05-06 20:58 | -14.38106 | 36.73371 | 34000 ft | 498 kts | 200° |
| 2026-05-06 20:58 | -14.44713 | 36.71189 | 34000 ft | 499 kts | 200° |
| 2026-05-06 20:59 | -14.51279 | 36.69019 | 34002 ft | 499 kts | 200° |
| 2026-05-06 20:59 | -14.57886 | 36.66835 | 34000 ft | 499 kts | 200° |
| 2026-05-06 21:00 | -14.64495 | 36.64648 | 33999 ft | 499 kts | 200° |
| 2026-05-06 21:00 | -14.71111 | 36.62458 | 34007 ft | 499 kts | 200° |
| 2026-05-06 21:01 | -14.77722 | 36.60268 | 34001 ft | 499 kts | 200° |
| 2026-05-06 21:01 | -14.84332 | 36.58077 | 34000 ft | 499 kts | 200° |
| 2026-05-06 21:02 | -14.90951 | 36.55881 | 33998 ft | 499 kts | 200° |
| 2026-05-06 21:02 | -14.97561 | 36.53687 | 34000 ft | 499 kts | 200° |
| 2026-05-06 21:02 | -15.00874 | 36.52586 | 35369 ft | 500 kts | 198° |
| 2026-05-06 21:03 | -15.04195 | 36.51482 | 35105 ft | 503 kts | 198° |
| 2026-05-06 21:03 | -15.07536 | 36.50372 | 34865 ft | 506 kts | 198° |
| 2026-05-06 21:03 | -15.10906 | 36.49253 | 34627 ft | 509 kts | 198° |
| 2026-05-06 21:03 | -15.14282 | 36.48131 | 34392 ft | 512 kts | 198° |
| 2026-05-06 21:04 | -15.17689 | 36.46998 | 34200 ft | 514 kts | 198° |
| 2026-05-06 21:04 | -15.24479 | 36.44739 | 34079 ft | 511 kts | 198° |
| 2026-05-06 21:05 | -15.31236 | 36.42488 | 34006 ft | 509 kts | 198° |
| 2026-05-06 21:05 | -15.37950 | 36.40251 | 33999 ft | 505 kts | 198° |
| 2026-05-06 21:06 | -15.44612 | 36.38029 | 33996 ft | 501 kts | 198° |
| 2026-05-06 21:06 | -15.51231 | 36.35821 | 33995 ft | 498 kts | 198° |
| 2026-05-06 21:07 | -15.57812 | 36.33623 | 33996 ft | 495 kts | 198° |
| 2026-05-06 21:07 | -15.64355 | 36.31436 | 33997 ft | 493 kts | 198° |
| 2026-05-06 21:08 | -15.70864 | 36.29260 | 33998 ft | 490 kts | 198° |
| 2026-05-06 21:08 | -15.77340 | 36.27093 | 33998 ft | 488 kts | 198° |
| 2026-05-06 21:09 | -15.83783 | 36.24936 | 33999 ft | 486 kts | 198° |
| 2026-05-06 21:09 | -15.90161 | 36.22798 | 33999 ft | 484 kts | 198° |
| 2026-05-06 21:10 | -15.96597 | 36.20640 | 34000 ft | 482 kts | 198° |
| 2026-05-06 21:10 | -16.02927 | 36.18501 | 33999 ft | 480 kts | 198° |
| 2026-05-06 21:11 | -16.09267 | 36.16327 | 33998 ft | 479 kts | 198° |
| 2026-05-06 21:11 | -16.15584 | 36.14157 | 34000 ft | 478 kts | 198° |
| 2026-05-06 21:12 | -16.21890 | 36.11992 | 34000 ft | 476 kts | 198° |
| 2026-05-06 21:12 | -16.28173 | 36.09836 | 34000 ft | 475 kts | 198° |
| 2026-05-06 21:13 | -16.34447 | 36.07683 | 34001 ft | 474 kts | 198° |
| 2026-05-06 21:13 | -16.40707 | 36.05532 | 34001 ft | 473 kts | 198° |
| 2026-05-06 21:14 | -16.46956 | 36.03384 | 34001 ft | 473 kts | 198° |
| 2026-05-06 21:14 | -16.53197 | 36.01237 | 34001 ft | 472 kts | 198° |
| 2026-05-06 21:15 | -16.59436 | 35.99088 | 34001 ft | 472 kts | 199° |
| 2026-05-06 21:15 | -16.65657 | 35.96939 | 34000 ft | 471 kts | 198° |
| 2026-05-06 21:16 | -16.71885 | 35.94799 | 34003 ft | 471 kts | 198° |
| 2026-05-06 21:16 | -16.78108 | 35.92660 | 34000 ft | 471 kts | 198° |
| 2026-05-06 21:17 | -16.84322 | 35.90526 | 34001 ft | 470 kts | 198° |
| 2026-05-06 21:17 | -16.90536 | 35.88381 | 34000 ft | 470 kts | 198° |
| 2026-05-06 21:18 | -16.96736 | 35.86217 | 34002 ft | 470 kts | 198° |
| 2026-05-06 21:18 | -17.02937 | 35.84067 | 34001 ft | 470 kts | 198° |
| 2026-05-06 21:19 | -17.09137 | 35.81924 | 34002 ft | 469 kts | 198° |
| 2026-05-06 21:19 | -17.15341 | 35.79777 | 34001 ft | 469 kts | 198° |
| 2026-05-06 21:20 | -17.21545 | 35.77627 | 34001 ft | 469 kts | 198° |
| 2026-05-06 21:20 | -17.27744 | 35.75476 | 34001 ft | 469 kts | 198° |
| 2026-05-06 21:21 | -17.33943 | 35.73323 | 34001 ft | 469 kts | 198° |
| 2026-05-06 21:21 | -17.40138 | 35.71171 | 34002 ft | 469 kts | 198° |
| 2026-05-06 21:22 | -17.46337 | 35.69015 | 34001 ft | 469 kts | 198° |
| 2026-05-06 21:22 | -17.52540 | 35.66857 | 34002 ft | 469 kts | 198° |
| 2026-05-06 21:23 | -17.58738 | 35.64700 | 34001 ft | 469 kts | 198° |
| 2026-05-06 21:23 | -17.64928 | 35.62543 | 34002 ft | 469 kts | 198° |
| 2026-05-06 21:24 | -17.71131 | 35.60379 | 34002 ft | 469 kts | 198° |
| 2026-05-06 21:24 | -17.77287 | 35.58230 | 34001 ft | 469 kts | 198° |
| 2026-05-06 21:25 | -17.83484 | 35.56064 | 34001 ft | 469 kts | 198° |
| 2026-05-06 21:25 | -17.89681 | 35.53898 | 34001 ft | 469 kts | 198° |
| 2026-05-06 21:26 | -17.95880 | 35.51729 | 34001 ft | 469 kts | 198° |
| 2026-05-06 21:26 | -18.02079 | 35.49558 | 34001 ft | 470 kts | 198° |
| 2026-05-06 21:27 | -18.08273 | 35.47388 | 34002 ft | 470 kts | 198° |
| 2026-05-06 21:27 | -18.14475 | 35.45213 | 34001 ft | 470 kts | 198° |
| 2026-05-06 21:28 | -18.20673 | 35.43037 | 34001 ft | 470 kts | 198° |
| 2026-05-06 21:28 | -18.26870 | 35.40858 | 34002 ft | 470 kts | 199° |
| 2026-05-06 21:29 | -18.32062 | 35.39028 | 34000 ft | 470 kts | 198° |
| 2026-05-06 21:29 | -18.39267 | 35.36502 | 34002 ft | 470 kts | 198° |
| 2026-05-06 21:30 | -18.44456 | 35.34676 | 34001 ft | 470 kts | 199° |
| 2026-05-06 21:30 | -18.50614 | 35.32506 | 34002 ft | 470 kts | 199° |
| 2026-05-06 21:31 | -18.56812 | 35.30320 | 34002 ft | 470 kts | 199° |
| 2026-05-06 21:31 | -18.63013 | 35.28134 | 34001 ft | 470 kts | 198° |
| 2026-05-06 21:32 | -18.69215 | 35.25952 | 34002 ft | 470 kts | 198° |
| 2026-05-06 21:32 | -18.78513 | 35.22675 | 34002 ft | 470 kts | 198° |
| 2026-05-06 21:33 | -18.84717 | 35.20486 | 34001 ft | 470 kts | 199° |
| 2026-05-06 21:33 | -18.90923 | 35.18294 | 34002 ft | 470 kts | 199° |
| 2026-05-06 21:34 | -18.97123 | 35.16102 | 34002 ft | 470 kts | 199° |
| 2026-05-06 21:34 | -19.03329 | 35.13907 | 34001 ft | 470 kts | 199° |
| 2026-05-06 21:35 | -19.09534 | 35.11710 | 34002 ft | 470 kts | 199° |
| 2026-05-06 21:35 | -19.15739 | 35.09512 | 34002 ft | 470 kts | 199° |
| 2026-05-06 21:36 | -19.21936 | 35.07314 | 34001 ft | 470 kts | 199° |
| 2026-05-06 21:36 | -19.28146 | 35.05110 | 34001 ft | 470 kts | 199° |
| 2026-05-06 21:37 | -19.34348 | 35.02907 | 34002 ft | 470 kts | 199° |
| 2026-05-06 21:37 | -19.40557 | 35.00700 | 34002 ft | 470 kts | 199° |
| 2026-05-06 21:38 | -19.46759 | 34.98494 | 34001 ft | 470 kts | 199° |
| 2026-05-06 21:38 | -19.52968 | 34.96283 | 34001 ft | 471 kts | 199° |
| 2026-05-06 21:39 | -19.59176 | 34.94071 | 34001 ft | 471 kts | 199° |
| 2026-05-06 21:39 | -19.65376 | 34.91859 | 34001 ft | 471 kts | 199° |
| 2026-05-06 21:40 | -19.71590 | 34.89641 | 34002 ft | 471 kts | 199° |
| 2026-05-06 21:40 | -19.77653 | 34.87065 | 34002 ft | 470 kts | 209° |
| 2026-05-06 21:41 | -19.83049 | 34.83167 | 33997 ft | 470 kts | 221° |
| 2026-05-06 21:41 | -19.87928 | 34.78552 | 34000 ft | 470 kts | 222° |
| 2026-05-06 21:42 | -19.92780 | 34.73902 | 34002 ft | 470 kts | 222° |
| 2026-05-06 21:42 | -19.97654 | 34.69275 | 34001 ft | 470 kts | 221° |
| 2026-05-06 21:43 | -20.02544 | 34.64661 | 34002 ft | 470 kts | 221° |
| 2026-05-06 21:43 | -20.07441 | 34.60044 | 34002 ft | 470 kts | 221° |
| 2026-05-06 21:44 | -20.12330 | 34.55429 | 34002 ft | 470 kts | 221° |
| 2026-05-06 21:44 | -20.17223 | 34.50805 | 34001 ft | 470 kts | 221° |
| 2026-05-06 21:45 | -20.22083 | 34.46208 | 34001 ft | 470 kts | 221° |
| 2026-05-06 21:45 | -20.26973 | 34.41578 | 34001 ft | 471 kts | 221° |
| 2026-05-06 21:46 | -20.31864 | 34.36943 | 34002 ft | 471 kts | 221° |
| 2026-05-06 21:46 | -20.36758 | 34.32301 | 34002 ft | 471 kts | 221° |
| 2026-05-06 21:47 | -20.41648 | 34.27658 | 34001 ft | 471 kts | 221° |
| 2026-05-06 21:47 | -20.46537 | 34.23012 | 34001 ft | 471 kts | 221° |
| 2026-05-06 21:48 | -20.51424 | 34.18364 | 34001 ft | 471 kts | 221° |
| 2026-05-06 21:48 | -20.56313 | 34.13710 | 34001 ft | 471 kts | 221° |
| 2026-05-06 21:49 | -20.61197 | 34.09056 | 34002 ft | 471 kts | 221° |
| 2026-05-06 21:49 | -20.66085 | 34.04394 | 34001 ft | 471 kts | 221° |
| 2026-05-06 21:50 | -20.70971 | 33.99731 | 34001 ft | 471 kts | 221° |
| 2026-05-06 21:50 | -20.75980 | 33.95216 | 34001 ft | 471 kts | 219° |
| 2026-05-06 21:51 | -20.81092 | 33.90828 | 34002 ft | 471 kts | 219° |
| 2026-05-06 21:51 | -20.86157 | 33.86455 | 34001 ft | 471 kts | 219° |
| 2026-05-06 21:52 | -20.91239 | 33.82022 | 34002 ft | 471 kts | 219° |
| 2026-05-06 21:52 | -20.96310 | 33.77578 | 34002 ft | 471 kts | 219° |
| 2026-05-06 21:53 | -21.01381 | 33.73128 | 34001 ft | 471 kts | 219° |
| 2026-05-06 21:53 | -21.06451 | 33.68678 | 34001 ft | 471 kts | 219° |
| 2026-05-06 21:54 | -21.11522 | 33.64222 | 34002 ft | 471 kts | 219° |
| 2026-05-06 21:54 | -21.16588 | 33.59768 | 34002 ft | 472 kts | 219° |
| 2026-05-06 21:55 | -21.21662 | 33.55302 | 34001 ft | 472 kts | 219° |
| 2026-05-06 21:55 | -21.26728 | 33.50839 | 34001 ft | 472 kts | 219° |
| 2026-05-06 21:56 | -21.31796 | 33.46371 | 34002 ft | 472 kts | 219° |
| 2026-05-06 21:56 | -21.36862 | 33.41900 | 34002 ft | 472 kts | 219° |
| 2026-05-06 21:57 | -21.41925 | 33.37427 | 34001 ft | 472 kts | 219° |
| 2026-05-06 21:57 | -21.46997 | 33.32943 | 34002 ft | 472 kts | 219° |
| 2026-05-06 21:58 | -21.52061 | 33.28461 | 34002 ft | 472 kts | 219° |
| 2026-05-06 21:58 | -21.57126 | 33.23974 | 34002 ft | 472 kts | 219° |
| 2026-05-06 21:59 | -21.62188 | 33.19486 | 34001 ft | 472 kts | 219° |
| 2026-05-06 21:59 | -21.67259 | 33.14994 | 34002 ft | 472 kts | 219° |
| 2026-05-06 22:00 | -21.72324 | 33.10506 | 34000 ft | 472 kts | 219° |
| 2026-05-06 22:00 | -21.77375 | 33.06007 | 34002 ft | 472 kts | 219° |
| 2026-05-06 22:01 | -21.82411 | 33.01484 | 34001 ft | 471 kts | 220° |
| 2026-05-06 22:01 | -21.87384 | 32.96943 | 34002 ft | 472 kts | 220° |
| 2026-05-06 22:02 | -21.92396 | 32.92391 | 34002 ft | 472 kts | 220° |
| 2026-05-06 22:02 | -21.97419 | 32.87841 | 34001 ft | 472 kts | 220° |
| 2026-05-06 22:03 | -22.02436 | 32.83288 | 34002 ft | 472 kts | 220° |
| 2026-05-06 22:03 | -22.07473 | 32.78742 | 34002 ft | 472 kts | 219° |
| 2026-05-06 22:04 | -22.12545 | 32.74245 | 34001 ft | 472 kts | 219° |
| 2026-05-06 22:04 | -22.17622 | 32.69745 | 34001 ft | 472 kts | 219° |
| 2026-05-06 22:05 | -22.22687 | 32.65239 | 34001 ft | 472 kts | 219° |
| 2026-05-06 22:05 | -22.27757 | 32.60718 | 34001 ft | 472 kts | 219° |
| 2026-05-06 22:06 | -22.32821 | 32.56198 | 34001 ft | 472 kts | 219° |
| 2026-05-06 22:06 | -22.37886 | 32.51672 | 34001 ft | 472 kts | 219° |
| 2026-05-06 22:07 | -22.42948 | 32.47145 | 34001 ft | 473 kts | 219° |
| 2026-05-06 22:07 | -22.48012 | 32.42612 | 34002 ft | 473 kts | 219° |
| 2026-05-06 22:08 | -22.53079 | 32.38071 | 34002 ft | 473 kts | 219° |
| 2026-05-06 22:08 | -22.58138 | 32.33534 | 34002 ft | 473 kts | 219° |
| 2026-05-06 22:09 | -22.63196 | 32.28992 | 34002 ft | 473 kts | 220° |
| 2026-05-06 22:09 | -22.68258 | 32.24443 | 34002 ft | 473 kts | 220° |
| 2026-05-06 22:10 | -22.73319 | 32.19889 | 34002 ft | 473 kts | 220° |
| 2026-05-06 22:10 | -22.78342 | 32.15366 | 34002 ft | 473 kts | 220° |
| 2026-05-06 22:11 | -22.83399 | 32.10807 | 34001 ft | 473 kts | 220° |
| 2026-05-06 22:11 | -22.88454 | 32.06245 | 34002 ft | 473 kts | 220° |
| 2026-05-06 22:12 | -22.93514 | 32.01673 | 34002 ft | 473 kts | 220° |
| 2026-05-06 22:12 | -22.98578 | 31.97117 | 34001 ft | 473 kts | 219° |
| 2026-05-06 22:13 | -23.03714 | 31.92655 | 34002 ft | 473 kts | 218° |
| 2026-05-06 22:13 | -23.08867 | 31.88207 | 34002 ft | 473 kts | 218° |
| 2026-05-06 22:14 | -23.13173 | 31.84469 | 34002 ft | 473 kts | 219° |
| 2026-05-06 22:14 | -23.19140 | 31.79268 | 34001 ft | 473 kts | 219° |
| 2026-05-06 22:15 | -23.24274 | 31.74787 | 34001 ft | 473 kts | 219° |
| 2026-05-06 22:15 | -23.29408 | 31.70302 | 34001 ft | 473 kts | 219° |
| 2026-05-06 22:16 | -23.34540 | 31.65814 | 34002 ft | 473 kts | 219° |
| 2026-05-06 22:16 | -23.39672 | 31.61322 | 34001 ft | 473 kts | 219° |
| 2026-05-06 22:17 | -23.43801 | 31.57422 | 34000 ft | 473 kts | 226° |
| 2026-05-06 22:17 | -23.47959 | 31.51876 | 34003 ft | 473 kts | 237° |
| 2026-05-06 22:18 | -23.51393 | 31.45770 | 34005 ft | 473 kts | 239° |
| 2026-05-06 22:18 | -23.54769 | 31.39613 | 34001 ft | 473 kts | 239° |
| 2026-05-06 22:19 | -23.58163 | 31.33469 | 34002 ft | 473 kts | 239° |
| 2026-05-06 22:19 | -23.61573 | 31.27335 | 34002 ft | 473 kts | 238° |
| 2026-05-06 22:20 | -23.64993 | 31.21194 | 34001 ft | 473 kts | 238° |
| 2026-05-06 22:20 | -23.68410 | 31.15050 | 34001 ft | 474 kts | 238° |
| 2026-05-06 22:21 | -23.71820 | 31.08907 | 34001 ft | 474 kts | 239° |
| 2026-05-06 22:21 | -23.75231 | 31.02755 | 34002 ft | 474 kts | 239° |
| 2026-05-06 22:22 | -23.78638 | 30.96601 | 34001 ft | 474 kts | 239° |
| 2026-05-06 22:22 | -23.82022 | 30.90484 | 34001 ft | 474 kts | 239° |
| 2026-05-06 22:23 | -23.85428 | 30.84317 | 34001 ft | 474 kts | 239° |
| 2026-05-06 22:23 | -23.88828 | 30.78154 | 34001 ft | 474 kts | 239° |
| 2026-05-06 22:24 | -23.92230 | 30.71980 | 34002 ft | 474 kts | 239° |
| 2026-05-06 22:24 | -23.95628 | 30.65805 | 34002 ft | 474 kts | 239° |
| 2026-05-06 22:25 | -23.99026 | 30.59623 | 34001 ft | 474 kts | 239° |
| 2026-05-06 22:25 | -24.02418 | 30.53442 | 34002 ft | 474 kts | 239° |
| 2026-05-06 22:26 | -24.05811 | 30.47253 | 34002 ft | 474 kts | 239° |
| 2026-05-06 22:26 | -24.09201 | 30.41062 | 34001 ft | 474 kts | 239° |
| 2026-05-06 22:27 | -24.12591 | 30.34863 | 34001 ft | 474 kts | 239° |
| 2026-05-06 22:27 | -24.15974 | 30.28668 | 34002 ft | 474 kts | 239° |
| 2026-05-06 22:28 | -24.19359 | 30.22461 | 34002 ft | 474 kts | 239° |
| 2026-05-06 22:28 | -24.22740 | 30.16256 | 34002 ft | 474 kts | 239° |
| 2026-05-06 22:29 | -24.26096 | 30.10086 | 34001 ft | 475 kts | 239° |
| 2026-05-06 22:29 | -24.29496 | 30.03829 | 34002 ft | 475 kts | 239° |
| 2026-05-06 22:30 | -24.32874 | 29.97604 | 34002 ft | 475 kts | 239° |
| 2026-05-06 22:30 | -24.36223 | 29.91422 | 34000 ft | 475 kts | 239° |
| 2026-05-06 22:31 | -24.39596 | 29.85191 | 34002 ft | 475 kts | 239° |
| 2026-05-06 22:31 | -24.42985 | 29.78970 | 34001 ft | 475 kts | 239° |
| 2026-05-06 22:32 | -24.46398 | 29.72759 | 34002 ft | 475 kts | 239° |
| 2026-05-06 22:32 | -24.49802 | 29.66546 | 34002 ft | 475 kts | 239° |
| 2026-05-06 22:33 | -24.53240 | 29.60348 | 34001 ft | 475 kts | 238° |
| 2026-05-06 22:33 | -24.56681 | 29.54148 | 34002 ft | 475 kts | 238° |
| 2026-05-06 22:34 | -24.60116 | 29.47944 | 34001 ft | 475 kts | 238° |
| 2026-05-06 22:34 | -24.63555 | 29.41736 | 34001 ft | 475 kts | 238° |
| 2026-05-06 22:35 | -24.66986 | 29.35531 | 34001 ft | 475 kts | 238° |
| 2026-05-06 22:35 | -24.70419 | 29.29315 | 34001 ft | 475 kts | 238° |
| 2026-05-06 22:36 | -24.73848 | 29.23096 | 34001 ft | 475 kts | 238° |
| 2026-05-06 22:36 | -24.77276 | 29.16871 | 34001 ft | 475 kts | 239° |
| 2026-05-06 22:37 | -24.80698 | 29.10649 | 34002 ft | 475 kts | 239° |
| 2026-05-06 22:37 | -24.84122 | 29.04415 | 34002 ft | 476 kts | 239° |
| 2026-05-06 22:38 | -24.87563 | 28.98142 | 33406 ft | 489 kts | 239° |
| 2026-05-06 22:38 | -24.89340 | 28.94898 | 32851 ft | 501 kts | 239° |
| 2026-05-06 22:38 | -24.91162 | 28.91572 | 32189 ft | 514 kts | 239° |
| 2026-05-06 22:39 | -24.93220 | 28.88357 | 31547 ft | 512 kts | 227° |
| 2026-05-06 22:39 | -24.95892 | 28.85881 | 30929 ft | 508 kts | 212° |
| 2026-05-06 22:39 | -24.99062 | 28.84144 | 30408 ft | 500 kts | 199° |
| 2026-05-06 22:39 | -25.02411 | 28.83262 | 29882 ft | 490 kts | 189° |
| 2026-05-06 22:40 | -25.05709 | 28.82667 | 29374 ft | 484 kts | 189° |
| 2026-05-06 22:40 | -25.09047 | 28.82030 | 28836 ft | 479 kts | 190° |
| 2026-05-06 22:40 | -25.12308 | 28.81377 | 28312 ft | 473 kts | 191° |
| 2026-05-06 22:40 | -25.15534 | 28.80708 | 27793 ft | 468 kts | 191° |
| 2026-05-06 22:41 | -25.21865 | 28.79368 | 26776 ft | 459 kts | 191° |
| 2026-05-06 22:41 | -25.24946 | 28.78712 | 26280 ft | 454 kts | 191° |
| 2026-05-06 22:41 | -25.28035 | 28.78056 | 25786 ft | 450 kts | 191° |
| 2026-05-06 22:42 | -25.31088 | 28.77408 | 25376 ft | 443 kts | 191° |
| 2026-05-06 22:42 | -25.34078 | 28.76774 | 25218 ft | 431 kts | 191° |
| 2026-05-06 22:42 | -25.36991 | 28.76156 | 25031 ft | 421 kts | 191° |
| 2026-05-06 22:42 | -25.39832 | 28.75554 | 24854 ft | 411 kts | 191° |
| 2026-05-06 22:43 | -25.42605 | 28.74965 | 24683 ft | 401 kts | 191° |
| 2026-05-06 22:43 | -25.45311 | 28.74392 | 24518 ft | 391 kts | 190° |
| 2026-05-06 22:43 | -25.47987 | 28.74126 | 24183 ft | 385 kts | 178° |
| 2026-05-06 22:43 | -25.50653 | 28.74322 | 23830 ft | 381 kts | 175° |
| 2026-05-06 22:44 | -25.53285 | 28.74593 | 23449 ft | 379 kts | 175° |
| 2026-05-06 22:44 | -25.55899 | 28.74860 | 23069 ft | 376 kts | 175° |
| 2026-05-06 22:44 | -25.58503 | 28.75105 | 22688 ft | 374 kts | 175° |
| 2026-05-06 22:44 | -25.61085 | 28.75329 | 22308 ft | 372 kts | 176° |
| 2026-05-06 22:45 | -25.63660 | 28.75539 | 21929 ft | 369 kts | 176° |
| 2026-05-06 22:45 | -25.66218 | 28.75741 | 21548 ft | 367 kts | 176° |
| 2026-05-06 22:45 | -25.68758 | 28.75937 | 21168 ft | 365 kts | 176° |
| 2026-05-06 22:45 | -25.71290 | 28.76132 | 20790 ft | 363 kts | 176° |
| 2026-05-06 22:46 | -25.73804 | 28.76326 | 20413 ft | 361 kts | 176° |
| 2026-05-06 22:46 | -25.76302 | 28.76518 | 20035 ft | 358 kts | 176° |
| 2026-05-06 22:46 | -25.78773 | 28.76709 | 19651 ft | 354 kts | 176° |
| 2026-05-06 22:46 | -25.81218 | 28.76898 | 19277 ft | 350 kts | 176° |
| 2026-05-06 22:47 | -25.83636 | 28.77084 | 18909 ft | 347 kts | 176° |
| 2026-05-06 22:47 | -25.86032 | 28.77258 | 18536 ft | 342 kts | 179° |
| 2026-05-06 22:47 | -25.88352 | 28.76953 | 18351 ft | 331 kts | 196° |
| 2026-05-06 22:47 | -25.90452 | 28.76032 | 18188 ft | 318 kts | 211° |
| 2026-05-06 22:48 | -25.92267 | 28.74714 | 18065 ft | 306 kts | 214° |
| 2026-05-06 22:48 | -25.94002 | 28.73429 | 17924 ft | 294 kts | 213° |
| 2026-05-06 22:48 | -25.95682 | 28.72206 | 17794 ft | 289 kts | 213° |
| 2026-05-06 22:48 | -25.97391 | 28.70961 | 17411 ft | 294 kts | 217° |
| 2026-05-06 22:49 | -25.98768 | 28.69320 | 17011 ft | 291 kts | 243° |
| 2026-05-06 22:49 | -25.99554 | 28.67290 | 16647 ft | 285 kts | 248° |
| 2026-05-06 22:49 | -26.00290 | 28.65252 | 16233 ft | 283 kts | 248° |
| 2026-05-06 22:49 | -26.01024 | 28.63235 | 15830 ft | 280 kts | 248° |
| 2026-05-06 22:50 | -26.01752 | 28.61239 | 15433 ft | 277 kts | 248° |
| 2026-05-06 22:50 | -26.02475 | 28.59262 | 15039 ft | 275 kts | 248° |
| 2026-05-06 22:50 | -26.03190 | 28.57307 | 14650 ft | 272 kts | 248° |
| 2026-05-06 22:50 | -26.03899 | 28.55377 | 14265 ft | 268 kts | 248° |
| 2026-05-06 22:51 | -26.04600 | 28.53468 | 13889 ft | 265 kts | 248° |
| 2026-05-06 22:51 | -26.05294 | 28.51578 | 13517 ft | 263 kts | 248° |
| 2026-05-06 22:51 | -26.05982 | 28.49705 | 13148 ft | 261 kts | 248° |
| 2026-05-06 22:51 | -26.06571 | 28.47819 | 12764 ft | 255 kts | 264° |
| 2026-05-06 22:52 | -26.06346 | 28.45910 | 12453 ft | 253 kts | 295° |
| 2026-05-06 22:52 | -26.05330 | 28.44288 | 12149 ft | 262 kts | 316° |
| 2026-05-06 22:52 | -26.03941 | 28.42947 | 11804 ft | 267 kts | 319° |
| 2026-05-06 22:52 | -26.02515 | 28.41615 | 11431 ft | 267 kts | 319° |
| 2026-05-06 22:53 | -26.01108 | 28.40299 | 11123 ft | 261 kts | 319° |
| 2026-05-06 22:53 | -25.99729 | 28.39001 | 10734 ft | 259 kts | 319° |
| 2026-05-06 22:53 | -25.98367 | 28.37713 | 10378 ft | 255 kts | 319° |
| 2026-05-06 22:53 | -25.97048 | 28.36463 | 10040 ft | 250 kts | 319° |
| 2026-05-06 22:54 | -25.95734 | 28.35216 | 9711 ft | 247 kts | 317° |
| 2026-05-06 22:54 | -25.94700 | 28.33747 | 9362 ft | 242 kts | 289° |
| 2026-05-06 22:54 | -25.94551 | 28.31913 | 9125 ft | 235 kts | 256° |
| 2026-05-06 22:54 | -25.95286 | 28.30400 | 8840 ft | 222 kts | 223° |
| 2026-05-06 22:55 | -25.96535 | 28.29489 | 8544 ft | 210 kts | 207° |
| 2026-05-06 22:55 | -25.97841 | 28.28839 | 8216 ft | 201 kts | 203° |
| 2026-05-06 22:55 | -25.99103 | 28.28289 | 7934 ft | 191 kts | 199° |
| 2026-05-06 22:55 | -26.00368 | 28.27858 | 7704 ft | 191 kts | 196° |
| 2026-05-06 22:56 | -26.01658 | 28.27456 | 7461 ft | 194 kts | 196° |
| 2026-05-06 22:56 | -26.02962 | 28.27053 | 7198 ft | 195 kts | 196° |
| 2026-05-06 22:56 | -26.04261 | 28.26650 | 6934 ft | 193 kts | 196° |
| 2026-05-06 22:56 | -26.05542 | 28.26253 | 6706 ft | 190 kts | 196° |
| 2026-05-06 22:57 | -26.06793 | 28.25865 | 6441 ft | 181 kts | 196° |
| 2026-05-06 22:57 | -26.07981 | 28.25497 | 6201 ft | 176 kts | 196° |
| 2026-05-06 22:57 | -26.09150 | 28.25137 | 6025 ft | 174 kts | 196° |
| 2026-05-06 22:57 | -26.10323 | 28.24766 | 5758 ft | 178 kts | 195° |
| 2026-05-06 22:58 | -26.11459 | 28.24418 | 5560 ft | 174 kts | 195° |
| 2026-05-06 22:58 | -26.12581 | 28.24094 | 5758 ft | 175 kts | 196° |
| 2026-05-06 22:58 | -26.13752 | 28.23759 | 6144 ft | 171 kts | 195° |
| 2026-05-06 22:58 | -26.14905 | 28.23434 | 6499 ft | 174 kts | 193° |
| 2026-05-06 22:59 | -26.16053 | 28.22964 | 6761 ft | 183 kts | 219° |
| 2026-05-06 22:59 | -26.16789 | 28.21756 | 6913 ft | 199 kts | 257° |
| 2026-05-06 22:59 | -26.16701 | 28.20162 | 7080 ft | 222 kts | 292° |
| 2026-05-06 22:59 | -26.15756 | 28.18707 | 7369 ft | 242 kts | 315° |
| 2026-05-06 23:00 | -26.14474 | 28.17433 | 7853 ft | 253 kts | 319° |
| 2026-05-06 23:00 | -26.13063 | 28.16241 | 7850 ft | 256 kts | 333° |
| 2026-05-06 23:00 | -26.11343 | 28.15796 | 7867 ft | 257 kts | 2° |
| 2026-05-06 23:00 | -26.09587 | 28.16129 | 7876 ft | 257 kts | 14° |
| 2026-05-06 23:01 | -26.07855 | 28.16645 | 7870 ft | 258 kts | 15° |
| 2026-05-06 23:01 | -26.06129 | 28.17184 | 7863 ft | 257 kts | 15° |
| 2026-05-06 23:01 | -26.04408 | 28.17727 | 7859 ft | 256 kts | 15° |
| 2026-05-06 23:01 | -26.02699 | 28.18271 | 7857 ft | 256 kts | 15° |
| 2026-05-06 23:02 | -26.00992 | 28.18816 | 7860 ft | 255 kts | 15° |
| 2026-05-06 23:02 | -25.99284 | 28.19364 | 7862 ft | 255 kts | 15° |
| 2026-05-06 23:02 | -25.97587 | 28.19915 | 7862 ft | 253 kts | 18° |
| 2026-05-06 23:02 | -25.96149 | 28.20949 | 7852 ft | 247 kts | 53° |
| 2026-05-06 23:03 | -25.95593 | 28.22693 | 7854 ft | 241 kts | 92° |
| 2026-05-06 23:03 | -25.95997 | 28.24459 | 7876 ft | 235 kts | 114° |
| 2026-05-06 23:03 | -25.96738 | 28.26074 | 7862 ft | 234 kts | 124° |
| 2026-05-06 23:03 | -25.97868 | 28.27308 | 7846 ft | 228 kts | 155° |
| 2026-05-06 23:04 | -25.99373 | 28.27658 | 7875 ft | 220 kts | 181° |
| 2026-05-06 23:04 | -26.00403 | 28.27583 | 7688 ft | 229 kts | 187° |
| 2026-05-06 23:04 | -26.02582 | 28.27175 | 7286 ft | 247 kts | 193° |
| 2026-05-06 23:04 | -26.03705 | 28.26846 | 7067 ft | 255 kts | 196° |
| 2026-05-06 23:05 | -26.05973 | 28.26118 | 6599 ft | 253 kts | 196° |
| 2026-05-06 23:05 | -26.07092 | 28.25778 | 6363 ft | 249 kts | 195° |
| 2026-05-06 23:05 | -26.08708 | 28.25274 | 6056 ft | 232 kts | 197° |
| 2026-05-06 23:05 | -26.10203 | 28.24769 | 5751 ft | 217 kts | 194° |
| 2026-05-06 23:06 | -26.11585 | 28.24406 | 5571 ft | 190 kts | 196° |
| 2026-05-06 23:06 | -26.12814 | 28.24044 | 5868 ft | 175 kts | 195° |
| 2026-05-06 23:06 | -26.13955 | 28.23717 | 5890 ft | 169 kts | 194° |
| 2026-05-06 23:06 | -26.14945 | 28.23437 | 5820 ft | 169 kts | 194° |
| 2026-05-06 23:07 | -26.16086 | 28.23111 | 5778 ft | 170 kts | 195° |
| 2026-05-06 23:07 | -26.17265 | 28.22767 | 5888 ft | 181 kts | 195° |
| 2026-05-06 23:07 | -26.18516 | 28.22404 | 6085 ft | 190 kts | 195° |
| 2026-05-06 23:07 | -26.19856 | 28.22014 | 6219 ft | 209 kts | 197° |
| 2026-05-06 23:08 | -26.21113 | 28.21160 | 6509 ft | 220 kts | 231° |
| 2026-05-06 23:08 | -26.21727 | 28.19610 | 7015 ft | 225 kts | 264° |
| 2026-05-06 23:08 | -26.21473 | 28.17906 | 7529 ft | 226 kts | 296° |
| 2026-05-06 23:08 | -26.20499 | 28.16532 | 7752 ft | 231 kts | 316° |
| 2026-05-06 23:09 | -26.19279 | 28.15332 | 7816 ft | 235 kts | 319° |
| 2026-05-06 23:09 | -26.18034 | 28.14163 | 7856 ft | 234 kts | 319° |
| 2026-05-06 23:09 | -26.16713 | 28.13149 | 7844 ft | 230 kts | 340° |
| 2026-05-06 23:09 | -26.15138 | 28.12981 | 7868 ft | 230 kts | 8° |
| 2026-05-06 23:10 | -26.13561 | 28.13379 | 7881 ft | 236 kts | 14° |
| 2026-05-06 23:10 | -26.11966 | 28.13870 | 7878 ft | 239 kts | 15° |
| 2026-05-06 23:10 | -26.10402 | 28.14361 | 7851 ft | 227 kts | 15° |
| 2026-05-06 23:10 | -26.08943 | 28.14824 | 7855 ft | 211 kts | 15° |
| 2026-05-06 23:11 | -26.07541 | 28.15273 | 7857 ft | 209 kts | 15° |
| 2026-05-06 23:11 | -26.06146 | 28.15724 | 7863 ft | 209 kts | 15° |
| 2026-05-06 23:11 | -26.04743 | 28.16177 | 7872 ft | 210 kts | 16° |
| 2026-05-06 23:11 | -26.03332 | 28.16633 | 7874 ft | 212 kts | 16° |
| 2026-05-06 23:12 | -26.01916 | 28.17091 | 7872 ft | 213 kts | 16° |
| 2026-05-06 23:12 | -26.00510 | 28.17545 | 7869 ft | 213 kts | 16° |
| 2026-05-06 23:12 | -25.99093 | 28.18004 | 7856 ft | 211 kts | 16° |
| 2026-05-06 23:12 | -25.97675 | 28.18464 | 7853 ft | 209 kts | 16° |
| 2026-05-06 23:13 | -25.96299 | 28.18910 | 7859 ft | 208 kts | 16° |
| 2026-05-06 23:13 | -25.94910 | 28.19361 | 7861 ft | 208 kts | 16° |
| 2026-05-06 23:13 | -25.93522 | 28.19813 | 7864 ft | 208 kts | 16° |
| 2026-05-06 23:13 | -25.92146 | 28.20290 | 7855 ft | 206 kts | 25° |
| 2026-05-06 23:14 | -25.91172 | 28.21385 | 7868 ft | 206 kts | 71° |
| 2026-05-06 23:14 | -25.91087 | 28.22988 | 7911 ft | 213 kts | 94° |
| 2026-05-06 23:14 | -25.91103 | 28.24628 | 7884 ft | 210 kts | 95° |
| 2026-05-06 23:14 | -25.91661 | 28.26064 | 7876 ft | 200 kts | 131° |
| 2026-05-06 23:15 | -25.92619 | 28.27140 | 7861 ft | 192 kts | 138° |
| 2026-05-06 23:15 | -25.93634 | 28.28055 | 7844 ft | 185 kts | 147° |
| 2026-05-06 23:15 | -25.94832 | 28.28486 | 7878 ft | 183 kts | 175° |
| 2026-05-06 23:15 | -25.96118 | 28.28484 | 7871 ft | 185 kts | 185° |
| 2026-05-06 23:16 | -25.97395 | 28.28306 | 7868 ft | 185 kts | 190° |
| 2026-05-06 23:16 | -25.98656 | 28.28017 | 7863 ft | 185 kts | 193° |
| 2026-05-06 23:16 | -25.99907 | 28.27712 | 7863 ft | 184 kts | 192° |
| 2026-05-06 23:16 | -26.01162 | 28.27443 | 7860 ft | 183 kts | 189° |
| 2026-05-06 23:17 | -26.02427 | 28.27208 | 7679 ft | 188 kts | 191° |
| 2026-05-06 23:17 | -26.03680 | 28.26850 | 7297 ft | 184 kts | 197° |
| 2026-05-06 23:17 | -26.04898 | 28.26434 | 6840 ft | 182 kts | 197° |
| 2026-05-06 23:17 | -26.06054 | 28.26074 | 6764 ft | 172 kts | 194° |
| 2026-05-06 23:18 | -26.07278 | 28.25722 | 6522 ft | 183 kts | 196° |
| 2026-05-06 23:18 | -26.08495 | 28.25336 | 6157 ft | 181 kts | 197° |
| 2026-05-06 23:18 | -26.09681 | 28.24941 | 5841 ft | 174 kts | 195° |
| 2026-05-06 23:18 | -26.10837 | 28.24619 | 5627 ft | 168 kts | 196° |
| 2026-05-06 23:19 | -26.11872 | 28.24291 | 5536 ft | 141 kts | 196° |
| 2026-05-06 23:19 | -26.12651 | 28.24052 | 5544 ft | 90 kts | 195° |
| 2026-05-06 23:19 | -26.13090 | 28.23913 | 5548 ft | 53 kts | 196° |
| 2026-05-06 23:19 | -26.13425 | 28.23812 | 5553 ft | 47 kts | 195° |
| 2026-05-06 23:20 | -26.13699 | 28.23726 | 5563 ft | 35 kts | 195° |
| 2026-05-06 23:20 | -26.13830 | 28.23631 | 5568 ft | 20 kts | 269° |
| 2026-05-06 23:20 | -26.13783 | 28.23508 | 5562 ft | 17 kts | 337° |
| 2026-05-06 23:20 | -26.13660 | 28.23535 | 5557 ft | 19 kts | 17° |
| 2026-05-06 23:21 | -26.13536 | 28.23576 | 5555 ft | 18 kts | 16° |
| 2026-05-06 23:21 | -26.13416 | 28.23613 | 5554 ft | 17 kts | 15° |
| 2026-05-06 23:21 | -26.13301 | 28.23648 | 5551 ft | 17 kts | 15° |
| 2026-05-06 23:21 | -26.13183 | 28.23684 | 5549 ft | 17 kts | 15° |
| 2026-05-06 23:22 | -26.13075 | 28.23717 | 5549 ft | 15 kts | 15° |
| 2026-05-06 23:22 | -26.12976 | 28.23748 | 5549 ft | 14 kts | 15° |
| 2026-05-06 23:22 | -26.12884 | 28.23777 | 5549 ft | 13 kts | 15° |
| 2026-05-06 23:22 | -26.12803 | 28.23802 | 5549 ft | 11 kts | 15° |
| 2026-05-06 23:23 | -26.12723 | 28.23827 | 5550 ft | 13 kts | 15° |
| 2026-05-06 23:23 | -26.12616 | 28.23860 | 5548 ft | 19 kts | 15° |
| 2026-05-06 23:23 | -26.12480 | 28.23902 | 5545 ft | 21 kts | 15° |
| 2026-05-06 23:23 | -26.12345 | 28.23944 | 5543 ft | 20 kts | 15° |
| 2026-05-06 23:24 | -26.12211 | 28.23985 | 5540 ft | 20 kts | 15° |
| 2026-05-06 23:24 | -26.12081 | 28.24026 | 5539 ft | 19 kts | 15° |
| 2026-05-06 23:24 | -26.11954 | 28.24066 | 5535 ft | 19 kts | 15° |
| 2026-05-06 23:24 | -26.11826 | 28.24106 | 5531 ft | 16 kts | 15° |
| 2026-05-06 23:25 | -26.11741 | 28.24117 | 5530 ft | 3 kts | 302° |
| 2026-05-06 23:25 | -26.11736 | 28.24092 | 5529 ft | 4 kts | 283° |
| 2026-05-06 23:25 | -26.11728 | 28.24063 | 5529 ft | 4 kts | 288° |
| 2026-05-06 23:25 | -26.11719 | 28.24031 | 5528 ft | 5 kts | 287° |
| 2026-05-06 23:26 | -26.11707 | 28.23988 | 5527 ft | 7 kts | 286° |
| 2026-05-06 23:26 | -26.11703 | 28.23970 | 5527 ft | 0 kts | 285° |